Alma Lake, Indiana
Current Conditions -  °F | °C
As of 3:53 AM on Tuesday 21 Oct 2014 (Local Time) from KHUF Reporting Station
Overcast Overcast  
Wind Chill: 47°   Ceiling: 6000
Heat Index: 47°   Visibility: 10mi
Dew Point: 45°   Wind: 3mph
Humidity: 93%   Direction: 310°NW
Pressure: 30"   Gusts: NA
Location:  39.5158°N, 87.1262°W
Report Text: KHUF 210753Z 31003KT 10SM OVC060 08/07 A3000 RMK AO2 SLP158 T00830072 $
Loading
Personal Weather Stations






























Interactive Weather Map New forecast layout! Learn more

10-Day Weather Forecast

Advertisements
Track Severe Weather on mobile